• Join FlightAware (Why Join?)
  • Login
  • US Flag 
01:44PM EST


 

Airport Tracker/Info


-or-


 

Live Flight TrackerFlight Track Log ✈ UCA3597 ✈ 24-Sep-2013 ✈ KIAD - KBGM

Flight Track Log - Related Links

Times and Time Zones

All times are in EDT time to prevent confusion due to time zone crossing. See the UCA3597 flight status page for this flight to view local times or setup timezone preferences in your user account.

Time Position Orientation Groundspeed Altitude Reporting Facility
EDT Latitude Longitude Course Direction KTS MPH feet Rate Location/Type
05:55PM 39.5219 -77.2100 19° North  Level Estimated
05:56PM 39.5793 -77.1848 19° North  Level Estimated
05:57PM 39.6367 -77.1595 19° North  Level Estimated
05:58PM 39.6941 -77.1342 19° North  Level Estimated
05:59PM 39.7515 -77.1089 19° North  Level Estimated
06:00PM 39.8089 -77.0835 19° North  Level Estimated
06:01PM 39.8663 -77.0580 19° North  Level Estimated
06:02PM 39.9237 -77.0326 19° North  Level Estimated
06:03PM 39.9811 -77.0070 19° North  Level Estimated
06:04PM 40.0385 -76.9815 19° North  Level Estimated
06:05PM 40.0958 -76.9559 19° North  Level Estimated
06:06PM 40.1532 -76.9302 19° North  Level Estimated
06:07PM 40.2105 -76.9045 19° North  Level Estimated
06:08PM 40.2679 -76.8788 19° North  Level Estimated
06:09PM 40.3252 -76.8530 19° North  Level Estimated
06:10PM 40.3826 -76.8272 19° North  Level Estimated
06:11PM 40.4399 -76.8014 19° North  Level Estimated
06:12PM 40.4972 -76.7755 19° North  Level Estimated
06:13PM 40.5546 -76.7495 19° North  Level Estimated
06:14PM 40.6119 -76.7235 19° North  Level Estimated
06:15PM 40.6692 -76.6975 19° North  Level Estimated
06:16PM 40.7265 -76.6714 19° North  Level Estimated
06:17PM 40.7838 -76.6452 19° North  Level Estimated
06:18PM 40.8411 -76.6191 19° North  Level Estimated
06:19PM 40.8984 -76.5928 19° North  Level Estimated
06:20PM 40.9557 -76.5666 19° North  Level Estimated
06:21PM 41.0129 -76.5403 19° North  Level Estimated
06:22PM 41.0702 -76.5139 19° North  Level Estimated
06:23PM 41.1274 -76.4875 19° North  Level Estimated
06:24PM 41.1847 -76.4610 19° North  Level Estimated
06:25PM 41.2420 -76.4345 19° North  Level Estimated
06:26PM 41.2992 -76.4080 19° North  Level Estimated
06:27PM 41.3564 -76.3814 19° North  Level Estimated
06:28PM 41.4137 -76.3548 19° North  Level Estimated
06:29PM 41.4709 -76.3281 19° North  Level Estimated
06:30PM 41.5281 -76.3014 19° North  Level Estimated
06:31PM 41.5853 -76.2746 19° North  Level Estimated
06:32PM 41.6425 -76.2477 19° North  Level Estimated
06:33PM 41.6997 -76.2209 19° North  Level Estimated
06:34PM 41.7569 -76.1939 19° North  Level Estimated
06:35PM 41.8141 -76.1670 19° North  Level Estimated
06:36PM 41.8713 -76.1400 19° North  Level Estimated
06:37PM 41.9285 -76.1129 19° North  Level Estimated
06:38PM 41.9856 -76.0858 19° North  Level Estimated
06:39PM 42.0428 -76.0586 19° North  Level Estimated
06:40PM 42.1000 -76.0314 19° North  Level Estimated
06:41PM 42.1571 -76.0041 19° North  Level Estimated
06:42PM 42.2084 -75.9796 19° North  Level Estimated
06:43PM 42.2084 -75.9796 35° Northeast  Level Estimated
06:44PM 42.2084 -75.9796 35° Northeast  Level Estimated
06:45PM 42.2084 -75.9796 35° Northeast  Level Estimated
06:46PM 42.2084 -75.9796 35° Northeast  Level Estimated
06:47PM 42.2084 -75.9796 35° Northeast  Level Estimated
06:48PM 42.2084 -75.9796 35° Northeast  Level Estimated
06:49PM 42.2084 -75.9796 35° Northeast  Level Estimated
06:50PM 42.2084 -75.9796 35° Northeast  Level Estimated
06:51PM 42.2084 -75.9796 35° Northeast  Level Estimated
06:52PM 42.2084 -75.9796 35° Northeast  Level Estimated
06:53PM 42.2084 -75.9796 35° Northeast  Level Estimated